sensor_id;sensor_type;location;lat;lon;timestamp;pressure;altitude;pressure_sealevel;temperature;humidity
3748;BME280;1889;50.058;8.688;2023-07-02T00:02:08;99507.86;;;19.64;77.01
3748;BME280;1889;50.058;8.688;2023-07-02T00:04:37;99504.64;;;19.59;76.68
3748;BME280;1889;50.058;8.688;2023-07-02T00:07:07;99513.45;;;19.11;78.47
3748;BME280;1889;50.058;8.688;2023-07-02T00:09:36;99514.29;;;19.26;78.06
3748;BME280;1889;50.058;8.688;2023-07-02T00:12:06;99509.23;;;19.50;76.96
3748;BME280;1889;50.058;8.688;2023-07-02T00:14:35;99513.22;;;19.42;77.03
3748;BME280;1889;50.058;8.688;2023-07-02T00:17:05;99513.22;;;19.42;77.03
3748;BME280;1889;50.058;8.688;2023-07-02T00:19:34;99508.76;;;19.36;76.83
3748;BME280;1889;50.058;8.688;2023-07-02T00:22:04;99510.20;;;19.27;77.31
3748;BME280;1889;50.058;8.688;2023-07-02T00:24:33;99508.48;;;19.26;77.26
3748;BME280;1889;50.058;8.688;2023-07-02T00:27:02;99502.92;;;19.58;75.06
3748;BME280;1889;50.058;8.688;2023-07-02T00:29:32;99502.92;;;19.58;75.06
3748;BME280;1889;50.058;8.688;2023-07-02T00:32:01;99516.23;;;19.72;73.80
3748;BME280;1889;50.058;8.688;2023-07-02T00:34:30;99516.23;;;19.72;73.80
3748;BME280;1889;50.058;8.688;2023-07-02T00:37:00;99507.84;;;19.71;73.68
3748;BME280;1889;50.058;8.688;2023-07-02T00:39:29;99502.61;;;19.62;73.57
3748;BME280;1889;50.058;8.688;2023-07-02T00:42:02;99513.67;;;19.63;73.48
3748;BME280;1889;50.058;8.688;2023-07-02T00:44:32;99512.94;;;19.61;73.35
3748;BME280;1889;50.058;8.688;2023-07-02T00:47:02;99514.37;;;19.60;73.17
3748;BME280;1889;50.058;8.688;2023-07-02T00:49:31;99521.99;;;19.59;72.94
3748;BME280;1889;50.058;8.688;2023-07-02T00:52:00;99522.38;;;19.60;72.52
3748;BME280;1889;50.058;8.688;2023-07-02T00:54:30;99520.19;;;19.59;71.89
3748;BME280;1889;50.058;8.688;2023-07-02T00:57:00;99521.23;;;19.57;71.84
3748;BME280;1889;50.058;8.688;2023-07-02T00:59:31;99526.56;;;19.57;71.43
3748;BME280;1889;50.058;8.688;2023-07-02T01:02:03;99529.03;;;19.38;71.97
3748;BME280;1889;50.058;8.688;2023-07-02T01:04:33;99528.09;;;19.32;71.87
3748;BME280;1889;50.058;8.688;2023-07-02T01:07:02;99528.40;;;19.28;71.89
3748;BME280;1889;50.058;8.688;2023-07-02T01:09:33;99520.58;;;19.18;72.53
3748;BME280;1889;50.058;8.688;2023-07-02T01:12:03;99520.01;;;19.27;72.08
3748;BME280;1889;50.058;8.688;2023-07-02T01:14:38;99522.28;;;19.33;71.70
3748;BME280;1889;50.058;8.688;2023-07-02T01:17:08;99523.22;;;19.39;71.12
3748;BME280;1889;50.058;8.688;2023-07-02T01:19:50;99513.98;;;19.30;71.07
3748;BME280;1889;50.058;8.688;2023-07-02T01:22:23;99521.06;;;19.17;71.17
3748;BME280;1889;50.058;8.688;2023-07-02T01:24:53;99512.39;;;19.28;70.68
3748;BME280;1889;50.058;8.688;2023-07-02T01:27:23;99524.68;;;19.37;70.13
3748;BME280;1889;50.058;8.688;2023-07-02T01:29:53;99527.83;;;19.51;69.21
3748;BME280;1889;50.058;8.688;2023-07-02T01:32:22;99522.56;;;19.57;68.74
3748;BME280;1889;50.058;8.688;2023-07-02T01:34:52;99525.45;;;19.54;68.89
3748;BME280;1889;50.058;8.688;2023-07-02T01:37:21;99524.88;;;19.27;69.26
3748;BME280;1889;50.058;8.688;2023-07-02T01:39:50;99524.88;;;19.27;69.26
3748;BME280;1889;50.058;8.688;2023-07-02T01:42:20;99534.88;;;19.02;70.25
3748;BME280;1889;50.058;8.688;2023-07-02T01:44:49;99531.91;;;19.00;70.01
3748;BME280;1889;50.058;8.688;2023-07-02T01:47:19;99531.91;;;19.00;70.01
3748;BME280;1889;50.058;8.688;2023-07-02T01:49:49;99534.19;;;18.71;71.04
3748;BME280;1889;50.058;8.688;2023-07-02T01:52:18;99530.49;;;18.87;70.70
3748;BME280;1889;50.058;8.688;2023-07-02T01:54:48;99527.83;;;18.94;70.17
3748;BME280;1889;50.058;8.688;2023-07-02T01:57:17;99528.47;;;18.77;70.52
3748;BME280;1889;50.058;8.688;2023-07-02T01:59:46;99525.75;;;18.55;70.94
3748;BME280;1889;50.058;8.688;2023-07-02T02:02:15;99525.75;;;18.55;70.94
3748;BME280;1889;50.058;8.688;2023-07-02T02:04:44;99523.16;;;18.47;70.68
3748;BME280;1889;50.058;8.688;2023-07-02T02:07:14;99517.56;;;18.21;71.11
3748;BME280;1889;50.058;8.688;2023-07-02T02:09:43;99529.33;;;18.17;71.41
3748;BME280;1889;50.058;8.688;2023-07-02T02:12:12;99530.94;;;18.13;71.41
3748;BME280;1889;50.058;8.688;2023-07-02T02:14:42;99530.94;;;18.13;71.41
3748;BME280;1889;50.058;8.688;2023-07-02T02:17:11;99539.07;;;18.03;71.95
3748;BME280;1889;50.058;8.688;2023-07-02T02:19:42;99538.03;;;18.28;70.99
3748;BME280;1889;50.058;8.688;2023-07-02T02:22:11;99540.09;;;18.46;69.94
3748;BME280;1889;50.058;8.688;2023-07-02T02:24:41;99539.48;;;18.41;69.83
3748;BME280;1889;50.058;8.688;2023-07-02T02:27:10;99545.12;;;18.13;70.63
3748;BME280;1889;50.058;8.688;2023-07-02T02:29:39;99540.18;;;17.91;71.19
3748;BME280;1889;50.058;8.688;2023-07-02T02:32:08;99543.68;;;18.08;70.85
3748;BME280;1889;50.058;8.688;2023-07-02T02:34:38;99546.98;;;18.04;70.87
3748;BME280;1889;50.058;8.688;2023-07-02T02:37:07;99553.97;;;18.14;70.01
3748;BME280;1889;50.058;8.688;2023-07-02T02:39:36;99548.09;;;18.16;69.86
3748;BME280;1889;50.058;8.688;2023-07-02T02:42:06;99548.09;;;18.16;69.86
3748;BME280;1889;50.058;8.688;2023-07-02T02:44:35;99550.44;;;17.90;70.80
3748;BME280;1889;50.058;8.688;2023-07-02T02:47:04;99544.66;;;17.75;70.91
3748;BME280;1889;50.058;8.688;2023-07-02T02:49:36;99544.66;;;17.75;70.91
3748;BME280;1889;50.058;8.688;2023-07-02T02:52:05;99549.55;;;17.83;70.38
3748;BME280;1889;50.058;8.688;2023-07-02T02:54:34;99540.94;;;17.78;70.35
3748;BME280;1889;50.058;8.688;2023-07-02T02:57:04;99553.33;;;18.02;69.18
3748;BME280;1889;50.058;8.688;2023-07-02T02:59:33;99559.55;;;18.09;69.01
3748;BME280;1889;50.058;8.688;2023-07-02T03:02:03;99565.80;;;17.85;69.27
3748;BME280;1889;50.058;8.688;2023-07-02T03:04:32;99567.44;;;17.88;69.38
3748;BME280;1889;50.058;8.688;2023-07-02T03:07:03;99569.20;;;17.96;68.54
3748;BME280;1889;50.058;8.688;2023-07-02T03:09:32;99569.20;;;17.96;68.54
3748;BME280;1889;50.058;8.688;2023-07-02T03:12:02;99578.41;;;18.13;67.98
3748;BME280;1889;50.058;8.688;2023-07-02T03:14:31;99578.41;;;18.13;67.98
3748;BME280;1889;50.058;8.688;2023-07-02T03:17:01;99573.39;;;18.16;67.69
3748;BME280;1889;50.058;8.688;2023-07-02T03:19:31;99573.61;;;18.04;67.48
3748;BME280;1889;50.058;8.688;2023-07-02T03:22:00;99578.44;;;17.82;68.45
3748;BME280;1889;50.058;8.688;2023-07-02T03:24:30;99579.80;;;18.05;67.14
3748;BME280;1889;50.058;8.688;2023-07-02T03:26:59;99574.16;;;18.25;66.63
3748;BME280;1889;50.058;8.688;2023-07-02T03:29:28;99574.16;;;18.25;66.63
3748;BME280;1889;50.058;8.688;2023-07-02T03:31:58;99572.98;;;18.08;67.01
3748;BME280;1889;50.058;8.688;2023-07-02T03:34:27;99578.55;;;18.26;66.69
3748;BME280;1889;50.058;8.688;2023-07-02T03:36:57;99580.99;;;18.38;66.29
3748;BME280;1889;50.058;8.688;2023-07-02T03:39:26;99578.73;;;18.46;65.56
3748;BME280;1889;50.058;8.688;2023-07-02T03:41:55;99578.73;;;18.46;65.56
3748;BME280;1889;50.058;8.688;2023-07-02T03:44:25;99584.77;;;18.34;65.80
3748;BME280;1889;50.058;8.688;2023-07-02T03:46:54;99587.36;;;17.97;66.39
3748;BME280;1889;50.058;8.688;2023-07-02T03:49:23;99587.36;;;17.97;66.39
3748;BME280;1889;50.058;8.688;2023-07-02T03:51:53;99591.75;;;17.98;66.13
3748;BME280;1889;50.058;8.688;2023-07-02T03:54:22;99602.27;;;18.08;65.48
3748;BME280;1889;50.058;8.688;2023-07-02T03:56:51;99605.25;;;18.17;64.97
3748;BME280;1889;50.058;8.688;2023-07-02T03:59:21;99609.39;;;18.23;64.36
3748;BME280;1889;50.058;8.688;2023-07-02T04:01:50;99609.39;;;18.23;64.36
3748;BME280;1889;50.058;8.688;2023-07-02T04:04:19;99604.03;;;18.16;63.82
3748;BME280;1889;50.058;8.688;2023-07-02T04:06:49;99604.03;;;18.16;63.82
3748;BME280;1889;50.058;8.688;2023-07-02T04:09:18;99606.27;;;18.08;64.24
3748;BME280;1889;50.058;8.688;2023-07-02T04:11:48;99617.59;;;17.96;64.47
3748;BME280;1889;50.058;8.688;2023-07-02T04:14:17;99617.59;;;17.96;64.47
3748;BME280;1889;50.058;8.688;2023-07-02T04:16:46;99611.48;;;18.09;63.96
3748;BME280;1889;50.058;8.688;2023-07-02T04:19:15;99608.30;;;18.18;63.22
3748;BME280;1889;50.058;8.688;2023-07-02T04:21:45;99608.30;;;18.18;63.22
3748;BME280;1889;50.058;8.688;2023-07-02T04:24:15;99617.04;;;18.13;62.85
3748;BME280;1889;50.058;8.688;2023-07-02T04:26:44;99619.90;;;17.70;64.33
3748;BME280;1889;50.058;8.688;2023-07-02T04:29:13;99622.80;;;17.74;64.37
3748;BME280;1889;50.058;8.688;2023-07-02T04:31:43;99626.31;;;17.75;64.20
3748;BME280;1889;50.058;8.688;2023-07-02T04:34:12;99627.25;;;18.21;63.10
3748;BME280;1889;50.058;8.688;2023-07-02T04:36:42;99627.25;;;18.21;63.10
3748;BME280;1889;50.058;8.688;2023-07-02T04:39:12;99629.69;;;18.17;62.66
3748;BME280;1889;50.058;8.688;2023-07-02T04:41:41;99635.84;;;18.10;63.26
3748;BME280;1889;50.058;8.688;2023-07-02T04:44:10;99632.25;;;17.96;63.07
3748;BME280;1889;50.058;8.688;2023-07-02T04:46:40;99634.70;;;18.23;62.94
3748;BME280;1889;50.058;8.688;2023-07-02T04:49:09;99634.70;;;18.23;62.94
3748;BME280;1889;50.058;8.688;2023-07-02T04:51:39;99634.50;;;18.26;61.89
3748;BME280;1889;50.058;8.688;2023-07-02T04:54:08;99634.50;;;18.26;61.89
3748;BME280;1889;50.058;8.688;2023-07-02T04:56:37;99636.61;;;18.51;61.62
3748;BME280;1889;50.058;8.688;2023-07-02T04:59:07;99636.61;;;18.51;61.62
3748;BME280;1889;50.058;8.688;2023-07-02T05:01:36;99638.53;;;18.64;60.56
3748;BME280;1889;50.058;8.688;2023-07-02T05:04:06;99638.53;;;18.64;60.56
3748;BME280;1889;50.058;8.688;2023-07-02T05:06:35;99637.28;;;18.47;60.85
3748;BME280;1889;50.058;8.688;2023-07-02T05:09:04;99637.28;;;18.47;60.85
3748;BME280;1889;50.058;8.688;2023-07-02T05:11:34;99642.93;;;18.18;61.89
3748;BME280;1889;50.058;8.688;2023-07-02T05:14:03;99646.02;;;18.65;61.07
3748;BME280;1889;50.058;8.688;2023-07-02T05:16:33;99655.02;;;18.71;60.55
3748;BME280;1889;50.058;8.688;2023-07-02T05:19:02;99653.47;;;18.51;60.94
3748;BME280;1889;50.058;8.688;2023-07-02T05:21:31;99653.61;;;18.41;60.61
3748;BME280;1889;50.058;8.688;2023-07-02T05:24:00;99648.41;;;18.47;61.09
3748;BME280;1889;50.058;8.688;2023-07-02T05:26:30;99648.41;;;18.47;61.09
3748;BME280;1889;50.058;8.688;2023-07-02T05:28:59;99658.73;;;18.37;60.83
3748;BME280;1889;50.058;8.688;2023-07-02T05:31:29;99658.11;;;18.56;60.11
3748;BME280;1889;50.058;8.688;2023-07-02T05:33:58;99654.11;;;18.56;60.24
3748;BME280;1889;50.058;8.688;2023-07-02T05:36:27;99659.69;;;18.36;59.96
3748;BME280;1889;50.058;8.688;2023-07-02T05:38:56;99666.06;;;18.41;60.58
3748;BME280;1889;50.058;8.688;2023-07-02T05:41:26;99661.38;;;18.68;59.67
3748;BME280;1889;50.058;8.688;2023-07-02T05:43:57;99661.38;;;18.68;59.67
3748;BME280;1889;50.058;8.688;2023-07-02T05:46:27;99656.00;;;18.84;59.33
3748;BME280;1889;50.058;8.688;2023-07-02T05:48:56;99657.09;;;18.73;59.63
3748;BME280;1889;50.058;8.688;2023-07-02T05:51:26;99648.95;;;18.83;59.59
3748;BME280;1889;50.058;8.688;2023-07-02T05:53:55;99664.44;;;18.70;59.43
3748;BME280;1889;50.058;8.688;2023-07-02T05:56:24;99664.44;;;18.70;59.43
3748;BME280;1889;50.058;8.688;2023-07-02T05:58:53;99667.87;;;19.01;59.39
3748;BME280;1889;50.058;8.688;2023-07-02T06:01:23;99682.87;;;19.18;58.44
3748;BME280;1889;50.058;8.688;2023-07-02T06:03:52;99679.88;;;19.01;58.46
3748;BME280;1889;50.058;8.688;2023-07-02T06:06:24;99679.88;;;19.01;58.46
3748;BME280;1889;50.058;8.688;2023-07-02T06:08:53;99692.38;;;19.15;58.27
3748;BME280;1889;50.058;8.688;2023-07-02T06:11:22;99692.30;;;19.24;58.02
3748;BME280;1889;50.058;8.688;2023-07-02T06:13:51;99699.18;;;19.21;57.50
3748;BME280;1889;50.058;8.688;2023-07-02T06:16:21;99699.18;;;19.21;57.50
3748;BME280;1889;50.058;8.688;2023-07-02T06:18:50;99695.59;;;19.06;58.60
3748;BME280;1889;50.058;8.688;2023-07-02T06:21:19;99700.98;;;19.20;58.28
3748;BME280;1889;50.058;8.688;2023-07-02T06:23:49;99700.98;;;19.20;58.28
3748;BME280;1889;50.058;8.688;2023-07-02T06:26:18;99704.72;;;19.39;57.66
3748;BME280;1889;50.058;8.688;2023-07-02T06:28:47;99709.85;;;19.21;58.55
3748;BME280;1889;50.058;8.688;2023-07-02T06:31:16;99710.58;;;19.16;58.37
3748;BME280;1889;50.058;8.688;2023-07-02T06:33:45;99710.58;;;19.16;58.37
3748;BME280;1889;50.058;8.688;2023-07-02T06:36:14;99705.77;;;18.99;58.67
3748;BME280;1889;50.058;8.688;2023-07-02T06:38:45;99709.16;;;19.17;58.39
3748;BME280;1889;50.058;8.688;2023-07-02T06:41:14;99711.29;;;19.26;58.03
3748;BME280;1889;50.058;8.688;2023-07-02T06:43:43;99712.84;;;18.78;59.60
3748;BME280;1889;50.058;8.688;2023-07-02T06:46:12;99714.26;;;18.76;60.04
3748;BME280;1889;50.058;8.688;2023-07-02T06:48:41;99708.76;;;19.09;59.35
3748;BME280;1889;50.058;8.688;2023-07-02T06:51:10;99709.41;;;19.35;58.68
3748;BME280;1889;50.058;8.688;2023-07-02T06:53:42;99721.45;;;19.13;59.11
3748;BME280;1889;50.058;8.688;2023-07-02T06:56:11;99718.38;;;19.04;59.29
3748;BME280;1889;50.058;8.688;2023-07-02T06:58:42;99722.38;;;19.41;58.33
3748;BME280;1889;50.058;8.688;2023-07-02T07:01:11;99722.38;;;19.41;58.33
3748;BME280;1889;50.058;8.688;2023-07-02T07:03:40;99721.72;;;19.45;57.93
3748;BME280;1889;50.058;8.688;2023-07-02T07:06:10;99716.25;;;19.69;57.62
3748;BME280;1889;50.058;8.688;2023-07-02T07:08:40;99716.25;;;19.69;57.62
3748;BME280;1889;50.058;8.688;2023-07-02T07:11:09;99727.02;;;19.82;57.49
3748;BME280;1889;50.058;8.688;2023-07-02T07:13:38;99730.55;;;19.90;57.38
3748;BME280;1889;50.058;8.688;2023-07-02T07:16:07;99727.88;;;19.68;57.66
3748;BME280;1889;50.058;8.688;2023-07-02T07:18:36;99727.41;;;19.76;57.69
3748;BME280;1889;50.058;8.688;2023-07-02T07:21:05;99726.27;;;19.94;57.18
3748;BME280;1889;50.058;8.688;2023-07-02T07:23:34;99730.45;;;19.91;57.24
3748;BME280;1889;50.058;8.688;2023-07-02T07:26:03;99731.83;;;19.10;59.48
3748;BME280;1889;50.058;8.688;2023-07-02T07:28:32;99731.83;;;19.10;59.48
3748;BME280;1889;50.058;8.688;2023-07-02T07:31:02;99729.12;;;19.33;59.24
3748;BME280;1889;50.058;8.688;2023-07-02T07:33:31;99737.88;;;19.65;58.44
3748;BME280;1889;50.058;8.688;2023-07-02T07:36:00;99740.76;;;19.69;58.18
3748;BME280;1889;50.058;8.688;2023-07-02T07:38:29;99733.89;;;19.35;58.29
3748;BME280;1889;50.058;8.688;2023-07-02T07:40:58;99739.12;;;19.73;57.95
3748;BME280;1889;50.058;8.688;2023-07-02T07:43:27;99743.99;;;19.67;57.65
3748;BME280;1889;50.058;8.688;2023-07-02T07:45:56;99747.55;;;19.44;58.24
3748;BME280;1889;50.058;8.688;2023-07-02T07:48:26;99752.57;;;19.79;57.84
3748;BME280;1889;50.058;8.688;2023-07-02T07:50:55;99754.96;;;20.12;57.29
3748;BME280;1889;50.058;8.688;2023-07-02T07:53:25;99754.96;;;20.12;57.29
3748;BME280;1889;50.058;8.688;2023-07-02T07:55:54;99755.66;;;20.08;57.21
3748;BME280;1889;50.058;8.688;2023-07-02T07:58:23;99755.66;;;20.08;57.21
3748;BME280;1889;50.058;8.688;2023-07-02T08:00:52;99756.36;;;20.67;55.95
3748;BME280;1889;50.058;8.688;2023-07-02T08:03:21;99755.16;;;20.78;55.52
3748;BME280;1889;50.058;8.688;2023-07-02T08:05:50;99757.11;;;20.96;55.26
3748;BME280;1889;50.058;8.688;2023-07-02T08:08:19;99752.33;;;20.94;55.24
3748;BME280;1889;50.058;8.688;2023-07-02T08:10:49;99750.24;;;20.65;55.36
3748;BME280;1889;50.058;8.688;2023-07-02T08:13:18;99758.53;;;20.34;55.65
3748;BME280;1889;50.058;8.688;2023-07-02T08:15:47;99758.53;;;20.34;55.65
3748;BME280;1889;50.058;8.688;2023-07-02T08:18:17;99748.09;;;20.50;55.88
3748;BME280;1889;50.058;8.688;2023-07-02T08:20:46;99742.52;;;20.87;55.09
3748;BME280;1889;50.058;8.688;2023-07-02T08:23:15;99750.83;;;21.10;54.33
3748;BME280;1889;50.058;8.688;2023-07-02T08:25:44;99750.22;;;20.92;55.00
3748;BME280;1889;50.058;8.688;2023-07-02T08:28:13;99750.98;;;20.94;54.42
3748;BME280;1889;50.058;8.688;2023-07-02T08:30:42;99746.69;;;20.99;53.89
3748;BME280;1889;50.058;8.688;2023-07-02T08:33:11;99757.36;;;20.38;54.54
3748;BME280;1889;50.058;8.688;2023-07-02T08:35:40;99757.36;;;20.38;54.54
3748;BME280;1889;50.058;8.688;2023-07-02T08:38:09;99747.30;;;20.89;54.15
3748;BME280;1889;50.058;8.688;2023-07-02T08:40:38;99747.30;;;20.89;54.15
3748;BME280;1889;50.058;8.688;2023-07-02T08:43:08;99744.75;;;21.01;54.33
3748;BME280;1889;50.058;8.688;2023-07-02T08:45:40;99750.73;;;20.91;53.99
3748;BME280;1889;50.058;8.688;2023-07-02T08:48:15;99746.13;;;21.20;53.33
3748;BME280;1889;50.058;8.688;2023-07-02T08:50:40;99746.13;;;21.20;53.33
3748;BME280;1889;50.058;8.688;2023-07-02T08:53:10;99733.22;;;21.40;53.15
3748;BME280;1889;50.058;8.688;2023-07-02T08:55:39;99741.30;;;21.45;52.43
3748;BME280;1889;50.058;8.688;2023-07-02T08:58:08;99742.55;;;21.27;52.91
3748;BME280;1889;50.058;8.688;2023-07-02T09:00:37;99746.89;;;21.22;52.79
3748;BME280;1889;50.058;8.688;2023-07-02T09:03:13;99744.84;;;21.58;52.46
3748;BME280;1889;50.058;8.688;2023-07-02T09:05:50;99747.09;;;21.39;51.43
3748;BME280;1889;50.058;8.688;2023-07-02T09:08:29;99744.98;;;21.17;51.56
3748;BME280;1889;50.058;8.688;2023-07-02T09:11:13;99746.03;;;21.22;51.71
3748;BME280;1889;50.058;8.688;2023-07-02T09:13:50;99740.78;;;21.13;51.79
3748;BME280;1889;50.058;8.688;2023-07-02T09:16:25;99742.94;;;21.41;51.66
3748;BME280;1889;50.058;8.688;2023-07-02T09:19:05;99742.73;;;21.31;51.74
3748;BME280;1889;50.058;8.688;2023-07-02T09:21:48;99739.39;;;21.47;51.38
3748;BME280;1889;50.058;8.688;2023-07-02T09:24:19;99746.80;;;21.24;51.47
3748;BME280;1889;50.058;8.688;2023-07-02T09:26:49;99740.58;;;21.56;50.74
3748;BME280;1889;50.058;8.688;2023-07-02T09:29:21;99748.77;;;21.85;50.15
3748;BME280;1889;50.058;8.688;2023-07-02T09:31:52;99757.95;;;21.43;50.15
3748;BME280;1889;50.058;8.688;2023-07-02T09:34:29;99753.88;;;21.18;50.36
3748;BME280;1889;50.058;8.688;2023-07-02T09:36:59;99753.59;;;21.15;50.58
3748;BME280;1889;50.058;8.688;2023-07-02T09:39:30;99752.88;;;21.26;50.52
3748;BME280;1889;50.058;8.688;2023-07-02T09:42:00;99754.55;;;21.14;50.76
3748;BME280;1889;50.058;8.688;2023-07-02T09:44:30;99753.48;;;21.24;50.89
3748;BME280;1889;50.058;8.688;2023-07-02T09:47:05;99752.06;;;21.51;50.54
3748;BME280;1889;50.058;8.688;2023-07-02T09:49:41;99746.83;;;21.75;50.19
3748;BME280;1889;50.058;8.688;2023-07-02T09:52:08;99744.17;;;21.87;49.96
3748;BME280;1889;50.058;8.688;2023-07-02T09:54:38;99740.57;;;21.94;49.50
3748;BME280;1889;50.058;8.688;2023-07-02T09:57:08;99740.69;;;21.80;49.13
3748;BME280;1889;50.058;8.688;2023-07-02T09:59:39;99744.31;;;21.91;48.73
3748;BME280;1889;50.058;8.688;2023-07-02T10:02:09;99739.81;;;21.92;48.20
3748;BME280;1889;50.058;8.688;2023-07-02T10:04:43;99745.14;;;21.99;47.96
3748;BME280;1889;50.058;8.688;2023-07-02T10:07:25;99744.88;;;22.09;47.21
3748;BME280;1889;50.058;8.688;2023-07-02T10:09:45;99740.41;;;22.15;45.75
3748;BME280;1889;50.058;8.688;2023-07-02T10:12:22;99741.75;;;22.15;45.09
3748;BME280;1889;50.058;8.688;2023-07-02T10:14:53;99733.89;;;22.37;45.57
3748;BME280;1889;50.058;8.688;2023-07-02T10:17:30;99742.59;;;22.65;45.07
3748;BME280;1889;50.058;8.688;2023-07-02T10:20:05;99732.06;;;22.74;43.73
3748;BME280;1889;50.058;8.688;2023-07-02T10:22:46;99720.14;;;23.02;43.66
3748;BME280;1889;50.058;8.688;2023-07-02T10:25:25;99724.83;;;23.23;43.40
3748;BME280;1889;50.058;8.688;2023-07-02T10:27:54;99726.59;;;23.05;42.28
3748;BME280;1889;50.058;8.688;2023-07-02T10:30:39;99727.06;;;22.99;42.12
3748;BME280;1889;50.058;8.688;2023-07-02T10:33:08;99722.45;;;23.01;41.92
3748;BME280;1889;50.058;8.688;2023-07-02T10:35:38;99730.50;;;23.01;42.27
3748;BME280;1889;50.058;8.688;2023-07-02T10:38:14;99745.19;;;22.72;42.29
3748;BME280;1889;50.058;8.688;2023-07-02T10:40:44;99744.16;;;22.80;42.79
3748;BME280;1889;50.058;8.688;2023-07-02T10:43:13;99732.48;;;22.87;43.20
3748;BME280;1889;50.058;8.688;2023-07-02T10:45:42;99738.12;;;22.89;43.36
3748;BME280;1889;50.058;8.688;2023-07-02T10:48:11;99735.88;;;22.46;44.06
3748;BME280;1889;50.058;8.688;2023-07-02T10:50:40;99738.30;;;22.75;44.60
3748;BME280;1889;50.058;8.688;2023-07-02T10:53:16;99751.05;;;23.13;43.69
3748;BME280;1889;50.058;8.688;2023-07-02T10:55:46;99736.61;;;23.44;43.01
3748;BME280;1889;50.058;8.688;2023-07-02T10:58:16;99741.17;;;22.90;42.54
3748;BME280;1889;50.058;8.688;2023-07-02T11:00:46;99739.74;;;22.97;42.25
3748;BME280;1889;50.058;8.688;2023-07-02T11:03:20;99731.95;;;23.00;41.28
3748;BME280;1889;50.058;8.688;2023-07-02T11:05:49;99731.44;;;23.24;41.58
3748;BME280;1889;50.058;8.688;2023-07-02T11:08:19;99724.89;;;23.45;41.25
3748;BME280;1889;50.058;8.688;2023-07-02T11:10:50;99731.82;;;23.31;41.34
3748;BME280;1889;50.058;8.688;2023-07-02T11:13:20;99726.66;;;23.22;41.89
3748;BME280;1889;50.058;8.688;2023-07-02T11:15:49;99733.62;;;23.48;41.47
3748;BME280;1889;50.058;8.688;2023-07-02T11:18:18;99722.02;;;22.89;41.86
3748;BME280;1889;50.058;8.688;2023-07-02T11:20:49;99727.37;;;22.89;42.13
3748;BME280;1889;50.058;8.688;2023-07-02T11:23:18;99741.37;;;22.81;41.81
3748;BME280;1889;50.058;8.688;2023-07-02T11:25:58;99734.05;;;22.78;42.46
3748;BME280;1889;50.058;8.688;2023-07-02T11:28:30;99735.51;;;23.06;42.04
3748;BME280;1889;50.058;8.688;2023-07-02T11:30:59;99740.39;;;23.06;42.16
3748;BME280;1889;50.058;8.688;2023-07-02T11:33:37;99734.63;;;22.94;42.61
3748;BME280;1889;50.058;8.688;2023-07-02T11:36:08;99737.60;;;23.08;42.31
3748;BME280;1889;50.058;8.688;2023-07-02T11:38:38;99732.45;;;23.34;40.95
3748;BME280;1889;50.058;8.688;2023-07-02T11:41:07;99737.90;;;23.27;40.42
3748;BME280;1889;50.058;8.688;2023-07-02T11:43:36;99733.38;;;23.22;38.76
3748;BME280;1889;50.058;8.688;2023-07-02T11:46:06;99731.44;;;23.24;38.37
3748;BME280;1889;50.058;8.688;2023-07-02T11:48:35;99733.20;;;23.42;38.88
3748;BME280;1889;50.058;8.688;2023-07-02T11:51:04;99732.45;;;23.05;40.04
3748;BME280;1889;50.058;8.688;2023-07-02T11:53:33;99735.77;;;22.66;41.22
3748;BME280;1889;50.058;8.688;2023-07-02T11:56:02;99742.03;;;22.91;41.22
3748;BME280;1889;50.058;8.688;2023-07-02T11:58:31;99745.38;;;23.00;40.15
3748;BME280;1889;50.058;8.688;2023-07-02T12:01:00;99740.19;;;23.15;40.20
3748;BME280;1889;50.058;8.688;2023-07-02T12:03:30;99742.41;;;23.21;39.60
3748;BME280;1889;50.058;8.688;2023-07-02T12:05:59;99740.74;;;23.37;39.53
3748;BME280;1889;50.058;8.688;2023-07-02T12:08:28;99739.52;;;23.35;39.03
3748;BME280;1889;50.058;8.688;2023-07-02T12:10:57;99738.09;;;23.13;39.11
3748;BME280;1889;50.058;8.688;2023-07-02T12:13:26;99749.86;;;23.23;39.24
3748;BME280;1889;50.058;8.688;2023-07-02T12:15:55;99747.39;;;23.14;39.22
3748;BME280;1889;50.058;8.688;2023-07-02T12:18:24;99746.10;;;23.26;39.33
3748;BME280;1889;50.058;8.688;2023-07-02T12:20:54;99739.83;;;23.19;39.10
3748;BME280;1889;50.058;8.688;2023-07-02T12:23:23;99735.27;;;23.44;38.69
3748;BME280;1889;50.058;8.688;2023-07-02T12:25:52;99741.83;;;23.64;38.59
3748;BME280;1889;50.058;8.688;2023-07-02T12:28:21;99747.75;;;23.91;38.20
3748;BME280;1889;50.058;8.688;2023-07-02T12:30:50;99738.44;;;24.01;37.67
3748;BME280;1889;50.058;8.688;2023-07-02T12:33:19;99740.89;;;23.81;37.87
3748;BME280;1889;50.058;8.688;2023-07-02T12:35:48;99749.94;;;24.03;37.57
3748;BME280;1889;50.058;8.688;2023-07-02T12:38:17;99746.77;;;24.14;37.24
3748;BME280;1889;50.058;8.688;2023-07-02T12:40:46;99746.29;;;24.15;36.34
3748;BME280;1889;50.058;8.688;2023-07-02T12:43:16;99746.53;;;24.34;36.43
3748;BME280;1889;50.058;8.688;2023-07-02T12:45:45;99743.46;;;24.11;36.05
3748;BME280;1889;50.058;8.688;2023-07-02T12:48:14;99742.34;;;23.85;36.46
3748;BME280;1889;50.058;8.688;2023-07-02T12:51:00;99741.76;;;24.43;36.48
3748;BME280;1889;50.058;8.688;2023-07-02T12:53:27;99745.29;;;24.49;35.74
3748;BME280;1889;50.058;8.688;2023-07-02T12:55:56;99748.94;;;24.70;35.67
3748;BME280;1889;50.058;8.688;2023-07-02T12:58:25;99746.51;;;24.62;35.18
3748;BME280;1889;50.058;8.688;2023-07-02T13:00:54;99759.21;;;23.93;36.02
3748;BME280;1889;50.058;8.688;2023-07-02T13:03:23;99756.89;;;23.94;35.61
3748;BME280;1889;50.058;8.688;2023-07-02T13:05:52;99759.73;;;23.98;35.99
3748;BME280;1889;50.058;8.688;2023-07-02T13:08:21;99757.53;;;24.14;35.23
3748;BME280;1889;50.058;8.688;2023-07-02T13:10:50;99762.80;;;24.32;34.92
3748;BME280;1889;50.058;8.688;2023-07-02T13:13:19;99767.47;;;24.30;34.54
3748;BME280;1889;50.058;8.688;2023-07-02T13:15:48;99765.48;;;24.32;34.62
3748;BME280;1889;50.058;8.688;2023-07-02T13:18:18;99763.88;;;24.58;34.37
3748;BME280;1889;50.058;8.688;2023-07-02T13:20:47;99770.13;;;24.14;34.73
3748;BME280;1889;50.058;8.688;2023-07-02T13:23:16;99770.51;;;24.26;33.82
3748;BME280;1889;50.058;8.688;2023-07-02T13:25:45;99771.13;;;24.29;34.10
3748;BME280;1889;50.058;8.688;2023-07-02T13:28:14;99781.11;;;24.16;34.85
3748;BME280;1889;50.058;8.688;2023-07-02T13:30:44;99766.82;;;23.99;35.30
3748;BME280;1889;50.058;8.688;2023-07-02T13:33:13;99777.06;;;23.94;35.11
3748;BME280;1889;50.058;8.688;2023-07-02T13:35:42;99779.06;;;24.25;34.95
3748;BME280;1889;50.058;8.688;2023-07-02T13:38:11;99776.09;;;24.01;35.33